createdAt,value
2022-11-07T00:00:08.047Z,99740.65
2022-11-07T00:02:43.621Z,99749.31
2022-11-07T00:05:17.177Z,99751.27
2022-11-07T00:07:50.869Z,99745.07
2022-11-07T00:10:26.931Z,99728.66
2022-11-07T00:13:00.740Z,99738.95
2022-11-07T00:15:34.217Z,99740.80
2022-11-07T00:18:07.842Z,99738.16
2022-11-07T00:20:41.442Z,99729.64
2022-11-07T00:23:19.759Z,99735.50
2022-11-07T00:25:53.599Z,99719.09
2022-11-07T00:28:26.976Z,99719.89
2022-11-07T00:31:01.831Z,99714.03
2022-11-07T00:33:38.165Z,99713.16
2022-11-07T00:36:14.390Z,99724.42
2022-11-07T00:38:48.392Z,99723.59
2022-11-07T00:41:22.343Z,99709.29
2022-11-07T00:43:55.983Z,99713.31
2022-11-07T00:46:29.726Z,99712.44
2022-11-07T00:49:04.493Z,99713.31
2022-11-07T00:51:42.757Z,99720.41
2022-11-07T00:54:16.907Z,99705.77
2022-11-07T00:56:50.711Z,99691.28
2022-11-07T00:59:25.184Z,99693.86
2022-11-07T01:01:59.745Z,99683.75
2022-11-07T01:04:51.704Z,99682.77
2022-11-07T01:07:25.098Z,99689.54
2022-11-07T01:09:59.122Z,99700.62
2022-11-07T01:12:36.610Z,99680.99
2022-11-07T01:15:12.511Z,99683.49
2022-11-07T01:17:45.959Z,99682.77
2022-11-07T01:20:19.365Z,99694.69
2022-11-07T01:22:53.377Z,99685.20
2022-11-07T01:25:28.539Z,99673.28
2022-11-07T01:28:01.953Z,99674.26
2022-11-07T01:30:37.045Z,99664.77
2022-11-07T01:33:11.049Z,99664.77
2022-11-07T01:35:44.438Z,99665.56
2022-11-07T01:38:17.740Z,99662.20
2022-11-07T01:41:12.636Z,99668.31
2022-11-07T01:43:49.215Z,99668.39
2022-11-07T01:46:25.280Z,99665.02
2022-11-07T01:49:03.314Z,99655.59
2022-11-07T01:51:41.174Z,99649.27
2022-11-07T01:54:16.578Z,99656.33
2022-11-07T01:56:51.459Z,99653.83
2022-11-07T01:59:27.853Z,99660.74
2022-11-07T02:02:02.180Z,99659.15
2022-11-07T02:04:36.672Z,99649.80
2022-11-07T02:07:13.032Z,99648.13
2022-11-07T02:09:47.260Z,99643.13
2022-11-07T02:12:22.317Z,99647.55
2022-11-07T02:14:56.990Z,99642.47
2022-11-07T02:17:30.636Z,99636.45
2022-11-07T02:20:04.135Z,99638.23
2022-11-07T02:22:41.573Z,99644.17
2022-11-07T02:25:16.781Z,99639.03
2022-11-07T02:27:53.345Z,99634.02
2022-11-07T02:30:29.744Z,99635.80
2022-11-07T02:33:03.185Z,99631.52
2022-11-07T02:35:39.612Z,99644.49
2022-11-07T02:38:15.771Z,99629.78
2022-11-07T02:40:51.937Z,99632.50
2022-11-07T02:43:28.712Z,99618.76
2022-11-07T02:46:04.401Z,99623.91
2022-11-07T02:48:44.041Z,99624.70
2022-11-07T02:51:17.694Z,99622.13
2022-11-07T02:53:51.097Z,99625.64
2022-11-07T02:56:25.441Z,99630.66
2022-11-07T02:58:58.917Z,99633.30
2022-11-07T03:01:32.579Z,99620.50
2022-11-07T03:04:06.337Z,99610.20
2022-11-07T03:06:39.900Z,99618.90
2022-11-07T03:09:12.969Z,99634.34
2022-11-07T03:11:46.298Z,99614.48
2022-11-07T03:14:19.894Z,99610.20
2022-11-07T03:16:53.199Z,99610.38
2022-11-07T03:19:27.375Z,99610.20
2022-11-07T03:22:01.741Z,99609.48
2022-11-07T03:24:35.532Z,99602.66
2022-11-07T03:27:10.941Z,99612.16
2022-11-07T03:29:44.467Z,99602.73
2022-11-07T03:32:18.010Z,99607.15
2022-11-07T03:34:51.810Z,99608.84
2022-11-07T03:37:25.585Z,99594.94
2022-11-07T03:39:58.917Z,99595.81
2022-11-07T03:42:32.203Z,99600.96
2022-11-07T03:45:06.347Z,99597.66
2022-11-07T03:47:41.289Z,99598.45
2022-11-07T03:50:16.953Z,99596.72
2022-11-07T03:52:50.609Z,99582.14
2022-11-07T03:55:23.934Z,99589.06
2022-11-07T03:57:58.435Z,99607.01
2022-11-07T04:00:32.259Z,99593.31
2022-11-07T04:03:05.942Z,99607.15
2022-11-07T04:05:39.297Z,99599.42
2022-11-07T04:08:13.241Z,99591.70
2022-11-07T04:10:46.547Z,99606.28
2022-11-07T04:13:38.862Z,99604.57
2022-11-07T04:16:47.549Z,99603.91
2022-11-07T04:22:01.124Z,99598.34
2022-11-07T04:24:35.050Z,99606.34
2022-11-07T04:27:26.264Z,99593.62
2022-11-07T04:30:00.312Z,99600.53
2022-11-07T04:32:35.392Z,99602.31
2022-11-07T04:35:10.720Z,99600.61
2022-11-07T04:37:45.083Z,99594.59
2022-11-07T04:40:20.225Z,99602.31
2022-11-07T04:42:54.036Z,99605.75
2022-11-07T04:45:27.531Z,99607.45
2022-11-07T04:48:00.909Z,99592.75
2022-11-07T04:50:34.419Z,99598.03
2022-11-07T04:53:08.053Z,99601.34
2022-11-07T04:55:41.722Z,99608.19
2022-11-07T04:58:15.179Z,99592.08
2022-11-07T05:00:49.165Z,99609.96
2022-11-07T05:03:24.708Z,99600.40
2022-11-07T05:05:58.133Z,99591.05
2022-11-07T05:08:31.444Z,99591.95
2022-11-07T05:11:05.259Z,99591.11
2022-11-07T05:13:39.615Z,99589.44
2022-11-07T05:16:17.204Z,99584.22
2022-11-07T05:18:50.673Z,99579.22
2022-11-07T05:21:24.280Z,99582.83
2022-11-07T05:23:57.692Z,99582.16
2022-11-07T05:26:34.705Z,99579.66
2022-11-07T05:29:09.584Z,99577.22
2022-11-07T05:31:43.771Z,99576.72
2022-11-07T05:34:17.804Z,99582.60
2022-11-07T05:36:51.912Z,99592.03
2022-11-07T05:39:25.374Z,99593.77
2022-11-07T05:41:59.406Z,99587.25
2022-11-07T05:44:33.901Z,99604.53
2022-11-07T05:47:08.921Z,99600.99
2022-11-07T05:49:42.056Z,99589.22
2022-11-07T05:52:15.887Z,99586.84
2022-11-07T05:54:50.353Z,99588.55
2022-11-07T05:57:25.135Z,99596.34
2022-11-07T05:59:58.795Z,99597.31
2022-11-07T06:02:33.171Z,99594.80
2022-11-07T06:05:10.383Z,99603.40
2022-11-07T06:07:44.307Z,99599.22
2022-11-07T06:10:18.005Z,99604.66
2022-11-07T06:13:00.181Z,99602.28
2022-11-07T06:15:35.870Z,99608.34
2022-11-07T06:18:11.654Z,99610.02
2022-11-07T06:20:45.743Z,99613.63
2022-11-07T06:23:20.438Z,99603.32
2022-11-07T06:25:54.393Z,99611.79
2022-11-07T06:28:28.175Z,99603.32
2022-11-07T06:31:03.746Z,99608.54
2022-11-07T06:33:37.291Z,99608.90
2022-11-07T06:36:13.879Z,99606.61
2022-11-07T06:38:48.119Z,99611.77
2022-11-07T06:41:22.099Z,99607.58
2022-11-07T06:43:55.732Z,99594.53
2022-11-07T06:46:29.299Z,99599.75
2022-11-07T06:49:02.781Z,99601.81
2022-11-07T06:51:36.311Z,99597.53
2022-11-07T06:54:09.982Z,99596.78
2022-11-07T06:56:43.542Z,99606.45
2022-11-07T06:59:17.068Z,99601.08
2022-11-07T07:01:52.291Z,99591.05
2022-11-07T07:04:25.796Z,99598.30
2022-11-07T07:06:59.305Z,99603.55
2022-11-07T07:09:33.382Z,99600.41
2022-11-07T07:12:12.511Z,99593.77
2022-11-07T07:14:46.200Z,99595.25
2022-11-07T07:17:20.276Z,99588.20
2022-11-07T07:19:54.253Z,99593.36
2022-11-07T07:22:27.690Z,99591.94
2022-11-07T07:25:01.440Z,99592.61
2022-11-07T07:27:34.997Z,99608.49
2022-11-07T07:30:11.437Z,99594.27
2022-11-07T07:32:45.124Z,99596.34
2022-11-07T07:35:19.044Z,99594.78
2022-11-07T07:37:54.028Z,99588.06
2022-11-07T07:40:27.412Z,99590.77
2022-11-07T07:43:00.883Z,99587.27
2022-11-07T07:45:34.404Z,99594.09
2022-11-07T07:48:09.049Z,99593.50
2022-11-07T07:50:42.606Z,99593.62
2022-11-07T07:53:16.346Z,99585.07
2022-11-07T07:55:50.461Z,99582.61
2022-11-07T07:58:24.389Z,99587.66
2022-11-07T08:00:59.172Z,99585.31
2022-11-07T08:03:57.621Z,99571.11
2022-11-07T08:06:09.574Z,99576.59
2022-11-07T08:08:44.540Z,99575.78
2022-11-07T08:11:18.001Z,99571.64
2022-11-07T08:13:51.607Z,99563.81
2022-11-07T08:16:25.124Z,99570.48
2022-11-07T08:18:58.769Z,99565.64
2022-11-07T08:21:34.725Z,99571.32
2022-11-07T08:24:09.981Z,99553.69
2022-11-07T08:26:43.693Z,99565.46
2022-11-07T08:29:18.104Z,99558.64
2022-11-07T08:31:51.743Z,99557.83
2022-11-07T08:34:25.480Z,99577.35
2022-11-07T08:36:59.568Z,99580.68
2022-11-07T08:39:33.256Z,99578.80
2022-11-07T08:42:07.922Z,99579.48
2022-11-07T08:44:42.164Z,99591.64
2022-11-07T08:47:15.792Z,99589.12
2022-11-07T08:49:51.544Z,99602.89
2022-11-07T08:52:25.438Z,99584.88
2022-11-07T08:55:01.082Z,99587.46
2022-11-07T08:57:36.848Z,99589.62
2022-11-07T09:00:14.153Z,99580.14
2022-11-07T09:05:27.501Z,99567.23
2022-11-07T09:08:01.356Z,99575.73
2022-11-07T09:10:35.236Z,99577.55
2022-11-07T09:13:08.759Z,99578.42
2022-11-07T09:15:50.348Z,99566.77
2022-11-07T09:18:20.011Z,99580.08
2022-11-07T09:20:54.960Z,99568.30
2022-11-07T09:23:28.834Z,99579.55
2022-11-07T09:26:02.907Z,99573.77
2022-11-07T09:28:36.891Z,99573.88
2022-11-07T09:31:11.031Z,99572.81
2022-11-07T09:33:45.198Z,99570.23
2022-11-07T09:36:18.877Z,99567.25
2022-11-07T09:38:53.751Z,99555.55
2022-11-07T09:44:47.770Z,99554.64
2022-11-07T09:47:25.298Z,99555.05
2022-11-07T09:50:02.734Z,99553.73
2022-11-07T09:52:41.292Z,99549.42
2022-11-07T09:55:20.981Z,99542.49
2022-11-07T09:57:57.393Z,99547.66
2022-11-07T10:00:32.836Z,99553.42
2022-11-07T10:03:08.985Z,99559.25
2022-11-07T10:05:50.785Z,99554.09
2022-11-07T10:08:27.461Z,99549.94
2022-11-07T10:11:03.883Z,99555.41
2022-11-07T10:13:54.311Z,99556.47
2022-11-07T10:16:37.321Z,99553.94
2022-11-07T10:19:24.019Z,99547.85
2022-11-07T10:22:02.352Z,99548.97
2022-11-07T10:24:51.966Z,99547.39
2022-11-07T10:27:27.583Z,99542.22
2022-11-07T10:30:02.104Z,99543.80
2022-11-07T10:32:40.101Z,99529.01
2022-11-07T10:35:16.941Z,99538.44
2022-11-07T10:37:57.229Z,99546.48
2022-11-07T10:40:35.408Z,99548.56
2022-11-07T10:43:11.548Z,99542.44
2022-11-07T10:45:45.880Z,99534.58
2022-11-07T10:48:19.904Z,99535.25
2022-11-07T10:50:57.744Z,99533.57
2022-11-07T10:53:31.336Z,99529.33
2022-11-07T10:56:07.587Z,99525.12
2022-11-07T10:58:46.510Z,99528.27
2022-11-07T11:01:26.061Z,99535.95
2022-11-07T11:04:00.177Z,99534.22
2022-11-07T11:06:34.165Z,99532.67
2022-11-07T11:09:20.052Z,99535.20
2022-11-07T11:11:55.159Z,99539.39
2022-11-07T11:14:28.952Z,99536.66
2022-11-07T11:17:02.756Z,99532.09
2022-11-07T11:19:40.957Z,99527.48
2022-11-07T11:22:18.813Z,99523.78
2022-11-07T11:25:01.563Z,99523.95
2022-11-07T11:27:39.669Z,99535.59
2022-11-07T11:30:17.849Z,99533.72
2022-11-07T11:32:54.156Z,99546.63
2022-11-07T11:35:42.031Z,99519.85
2022-11-07T11:38:18.001Z,99528.55
2022-11-07T11:41:03.287Z,99531.14
2022-11-07T11:43:33.264Z,99529.42
2022-11-07T11:46:10.841Z,99529.52
2022-11-07T11:48:48.269Z,99525.97
2022-11-07T11:51:25.402Z,99520.70
2022-11-07T11:53:59.731Z,99526.53
2022-11-07T11:56:41.029Z,99520.55
2022-11-07T11:59:36.539Z,99521.67
2022-11-07T12:02:25.151Z,99513.17
2022-11-07T12:05:02.636Z,99514.94
2022-11-07T12:07:45.911Z,99513.31
2022-11-07T12:10:22.987Z,99504.75
2022-11-07T12:13:02.696Z,99509.78
2022-11-07T12:15:52.582Z,99502.69
2022-11-07T12:18:30.873Z,99502.62
2022-11-07T12:21:10.479Z,99495.70
2022-11-07T12:23:51.304Z,99506.78
2022-11-07T12:26:28.156Z,99498.13
2022-11-07T12:29:06.036Z,99491.30
2022-11-07T12:31:51.184Z,99500.05
2022-11-07T12:34:34.890Z,99489.33
2022-11-07T12:37:20.819Z,99494.48
2022-11-07T12:40:05.539Z,99495.33
2022-11-07T12:42:49.108Z,99495.95
2022-11-07T12:45:26.658Z,99491.55
2022-11-07T12:48:13.479Z,99498.47
2022-11-07T12:50:50.991Z,99494.12
2022-11-07T12:53:32.972Z,99495.14
2022-11-07T12:56:09.829Z,99495.33
2022-11-07T12:58:45.258Z,99493.62
2022-11-07T13:01:21.872Z,99501.31
2022-11-07T13:04:04.366Z,99493.36
2022-11-07T13:06:40.879Z,99492.61
2022-11-07T13:09:20.579Z,99490.78
2022-11-07T13:11:59.196Z,99496.70
2022-11-07T13:14:36.477Z,99485.52
2022-11-07T13:17:21.147Z,99490.73
2022-11-07T13:20:06.181Z,99489.92
2022-11-07T13:22:41.681Z,99491.80
2022-11-07T13:25:33.332Z,99500.41
2022-11-07T13:28:10.660Z,99490.78
2022-11-07T13:30:48.089Z,99489.80
2022-11-07T13:33:29.826Z,99503.52
2022-11-07T13:36:14.452Z,99496.54
2022-11-07T13:38:54.605Z,99490.56
2022-11-07T13:41:31.438Z,99505.29
2022-11-07T13:44:08.003Z,99495.08
2022-11-07T13:46:46.695Z,99491.69
2022-11-07T13:49:22.998Z,99495.95
2022-11-07T13:51:59.424Z,99490.03
2022-11-07T13:54:36.481Z,99492.66
2022-11-07T13:57:14.990Z,99495.95
2022-11-07T13:59:51.412Z,99487.45
2022-11-07T14:02:26.920Z,99490.93
2022-11-07T14:05:20.788Z,99490.17
2022-11-07T14:07:43.233Z,99495.19
2022-11-07T14:10:25.305Z,99483.69
2022-11-07T14:13:05.269Z,99487.08
2022-11-07T14:15:41.133Z,99492.24
2022-11-07T14:18:17.631Z,99492.24
2022-11-07T14:20:52.522Z,99487.89
2022-11-07T14:23:30.050Z,99494.56
2022-11-07T14:26:07.692Z,99487.67
2022-11-07T14:28:42.381Z,99487.67
2022-11-07T14:31:21.701Z,99490.31
2022-11-07T14:33:59.626Z,99492.08
2022-11-07T14:36:34.580Z,99482.63
2022-11-07T14:39:15.547Z,99486.91
2022-11-07T14:41:48.301Z,99474.02
2022-11-07T14:44:28.391Z,99482.63
2022-11-07T14:47:01.123Z,99484.39
2022-11-07T14:49:39.326Z,99483.69
2022-11-07T14:52:20.978Z,99488.09
2022-11-07T14:54:57.175Z,99489.92
2022-11-07T14:57:30.797Z,99491.55
2022-11-07T15:00:12.990Z,99489.80
2022-11-07T15:02:49.216Z,99485.45
2022-11-07T15:05:28.315Z,99487.89
2022-11-07T15:08:02.948Z,99480.85
2022-11-07T15:10:41.193Z,99479.09
2022-11-07T15:13:25.460Z,99472.36
2022-11-07T15:16:06.678Z,99478.41
2022-11-07T15:18:46.055Z,99475.84
2022-11-07T15:21:31.682Z,99471.59
2022-11-07T15:24:25.468Z,99467.34
2022-11-07T15:27:03.773Z,99463.86
2022-11-07T15:29:38.107Z,99468.27
2022-11-07T15:32:17.485Z,99468.27
2022-11-07T15:35:07.824Z,99464.76
2022-11-07T15:37:29.846Z,99474.18
2022-11-07T15:40:03.568Z,99469.92
2022-11-07T15:42:37.273Z,99465.63
2022-11-07T15:45:12.307Z,99468.15
2022-11-07T15:47:47.126Z,99463.86
2022-11-07T15:50:23.158Z,99455.05
2022-11-07T15:52:57.153Z,99467.95
2022-11-07T15:55:30.772Z,99462.03
2022-11-07T15:58:04.222Z,99467.39
2022-11-07T16:00:37.729Z,99462.34
2022-11-07T16:03:17.065Z,99462.39
2022-11-07T16:05:53.504Z,99460.72
2022-11-07T16:08:27.361Z,99458.95
2022-11-07T16:11:02.850Z,99459.70
2022-11-07T16:13:36.425Z,99455.30
2022-11-07T16:16:14.155Z,99458.84
2022-11-07T16:18:47.493Z,99458.08
2022-11-07T16:21:21.343Z,99438.55
2022-11-07T16:23:55.230Z,99439.06
2022-11-07T16:26:31.984Z,99448.42
2022-11-07T16:29:05.672Z,99427.73
2022-11-07T16:31:39.377Z,99431.13
2022-11-07T16:34:13.294Z,99430.36
2022-11-07T16:36:48.927Z,99422.70
2022-11-07T16:39:23.704Z,99415.07
2022-11-07T16:41:57.323Z,99417.81
2022-11-07T16:44:30.799Z,99418.00
2022-11-07T16:47:04.598Z,99413.50
2022-11-07T16:49:39.424Z,99425.45
2022-11-07T16:54:59.291Z,99412.95
2022-11-07T16:57:36.981Z,99420.04
2022-11-07T17:00:19.715Z,99425.15
2022-11-07T17:02:53.339Z,99418.11
2022-11-07T17:05:27.280Z,99420.69
2022-11-07T17:08:01.531Z,99418.11
2022-11-07T17:10:35.409Z,99418.16
2022-11-07T17:13:09.097Z,99420.58
2022-11-07T17:15:42.935Z,99414.52
2022-11-07T17:18:23.355Z,99413.66
2022-11-07T17:20:57.503Z,99419.68
2022-11-07T17:23:31.369Z,99423.97
2022-11-07T17:26:07.267Z,99413.77
2022-11-07T17:28:40.840Z,99411.12
2022-11-07T17:31:14.536Z,99414.72
2022-11-07T17:33:48.273Z,99418.05
2022-11-07T17:36:30.861Z,99404.45
2022-11-07T17:39:05.414Z,99396.76
2022-11-07T17:41:39.072Z,99410.62
2022-11-07T17:44:12.832Z,99413.25
2022-11-07T17:46:47.631Z,99396.90
2022-11-07T17:49:22.556Z,99412.38
2022-11-07T17:51:56.100Z,99407.22
2022-11-07T17:54:29.916Z,99397.81
2022-11-07T17:57:05.758Z,99403.80
2022-11-07T17:59:44.769Z,99393.26
2022-11-07T18:02:18.806Z,99404.34
2022-11-07T18:04:52.587Z,99400.91
2022-11-07T18:07:25.913Z,99397.27
2022-11-07T18:09:59.570Z,99402.33
2022-11-07T18:12:34.718Z,99386.84
2022-11-07T18:15:11.945Z,99393.72
2022-11-07T18:17:45.266Z,99391.80
2022-11-07T18:20:18.964Z,99400.39
2022-11-07T18:22:53.943Z,99392.77
2022-11-07T18:25:27.886Z,99385.98
2022-11-07T18:28:01.556Z,99391.14
2022-11-07T18:30:36.548Z,99382.55
2022-11-07T18:33:09.944Z,99387.95
2022-11-07T18:35:44.391Z,99385.52
2022-11-07T18:38:18.043Z,99382.94
2022-11-07T18:40:59.237Z,99381.17
2022-11-07T18:43:33.628Z,99391.49
2022-11-07T18:46:09.339Z,99377.58
2022-11-07T18:48:43.491Z,99378.40
2022-11-07T18:51:19.712Z,99372.38
2022-11-07T18:53:54.887Z,99374.14
2022-11-07T18:56:29.208Z,99378.45
2022-11-07T18:59:03.318Z,99367.31
2022-11-07T19:01:37.061Z,99363.87
2022-11-07T19:04:11.575Z,99355.23
2022-11-07T19:06:57.524Z,99357.95
2022-11-07T19:09:33.400Z,99360.52
2022-11-07T19:12:07.021Z,99353.79
2022-11-07T19:14:40.504Z,99349.55
2022-11-07T19:17:14.045Z,99356.42
2022-11-07T19:19:47.796Z,99352.94
2022-11-07T19:22:21.205Z,99353.03
2022-11-07T19:24:54.812Z,99354.60
2022-11-07T19:27:29.757Z,99372.72
2022-11-07T19:30:03.367Z,99364.27
2022-11-07T19:32:36.888Z,99362.74
2022-11-07T19:35:11.193Z,99358.39
2022-11-07T19:37:44.793Z,99357.48
2022-11-07T19:40:18.386Z,99353.95
2022-11-07T19:42:52.545Z,99354.66
2022-11-07T19:45:27.597Z,99370.14
2022-11-07T19:48:00.644Z,99362.50
2022-11-07T19:50:33.955Z,99363.11
2022-11-07T19:53:07.913Z,99351.83
2022-11-07T19:55:41.894Z,99343.28
2022-11-07T19:58:16.923Z,99351.97
2022-11-07T20:00:50.500Z,99342.52
2022-11-07T20:03:24.153Z,99340.80
2022-11-07T20:05:57.913Z,99337.35
2022-11-07T20:08:31.396Z,99339.83
2022-11-07T20:11:05.084Z,99328.55
2022-11-07T20:13:38.419Z,99322.63
2022-11-07T20:16:13.276Z,99328.74
2022-11-07T20:18:46.976Z,99329.66
2022-11-07T20:21:22.656Z,99326.22
2022-11-07T20:23:57.611Z,99322.73
2022-11-07T20:26:33.017Z,99306.28
2022-11-07T20:29:07.421Z,99315.70
2022-11-07T20:31:43.951Z,99319.00
2022-11-07T20:34:20.248Z,99301.04
2022-11-07T20:36:55.535Z,99311.45
2022-11-07T20:39:29.906Z,99310.69
2022-11-07T20:42:03.348Z,99334.77
2022-11-07T20:44:37.087Z,99323.73
2022-11-07T20:47:11.384Z,99300.36
2022-11-07T20:49:45.305Z,99304.57
2022-11-07T20:52:18.643Z,99291.67
2022-11-07T20:54:52.557Z,99293.48
2022-11-07T20:57:26.092Z,99302.09
2022-11-07T20:59:59.419Z,99300.56
2022-11-07T21:02:34.614Z,99309.25
2022-11-07T21:05:17.748Z,99297.12
2022-11-07T21:07:44.624Z,99297.83
2022-11-07T21:10:18.281Z,99287.33
2022-11-07T21:12:51.317Z,99277.81
2022-11-07T21:15:24.704Z,99288.33
2022-11-07T21:17:58.124Z,99283.83
2022-11-07T21:20:31.410Z,99268.63
2022-11-07T21:23:05.109Z,99271.13
2022-11-07T21:25:43.115Z,99273.08
2022-11-07T21:28:18.736Z,99264.33
2022-11-07T21:31:01.998Z,99273.94
2022-11-07T21:33:35.695Z,99280.05
2022-11-07T21:36:13.332Z,99263.03
2022-11-07T21:38:46.932Z,99260.37
2022-11-07T21:41:20.288Z,99268.06
2022-11-07T21:43:53.929Z,99262.90
2022-11-07T21:46:29.055Z,99245.68
2022-11-07T21:49:03.080Z,99253.47
2022-11-07T21:51:37.027Z,99244.83
2022-11-07T21:54:11.393Z,99237.09
2022-11-07T21:56:44.922Z,99242.20
2022-11-07T21:59:19.629Z,99241.48
2022-11-07T22:01:54.798Z,99241.76
2022-11-07T22:04:28.304Z,99245.16
2022-11-07T22:07:02.344Z,99247.73
2022-11-07T22:09:35.665Z,99237.55
2022-11-07T22:12:09.569Z,99240.17
2022-11-07T22:14:43.116Z,99238.45
2022-11-07T22:17:16.827Z,99253.95
2022-11-07T22:19:51.268Z,99235.88
2022-11-07T22:22:24.537Z,99239.36
2022-11-07T22:24:57.916Z,99254.89
2022-11-07T22:27:31.370Z,99231.75
2022-11-07T22:30:04.974Z,99224.95
2022-11-07T22:32:38.200Z,99228.35
2022-11-07T22:35:12.555Z,99213.63
2022-11-07T22:37:45.944Z,99220.47
2022-11-07T22:40:20.477Z,99220.47
2022-11-07T22:42:54.081Z,99228.35
2022-11-07T22:45:27.459Z,99226.55
2022-11-07T22:48:00.984Z,99212.05
2022-11-07T22:50:34.359Z,99218.16
2022-11-07T22:53:08.050Z,99225.00
2022-11-07T22:55:41.916Z,99224.09
2022-11-07T22:58:16.082Z,99210.41
2022-11-07T23:00:49.676Z,99208.73
2022-11-07T23:03:23.232Z,99207.87
2022-11-07T23:05:56.502Z,99219.84
2022-11-07T23:08:29.907Z,99213.04
2022-11-07T23:11:44.096Z,99217.21
2022-11-07T23:13:41.810Z,99202.53
2022-11-07T23:16:35.133Z,99187.22
2022-11-07T23:19:10.148Z,99194.02
2022-11-07T23:21:43.567Z,99204.47
2022-11-07T23:24:17.122Z,99193.37
2022-11-07T23:26:50.785Z,99200.31
2022-11-07T23:29:25.562Z,99196.09
2022-11-07T23:31:58.892Z,99167.64
2022-11-07T23:34:33.456Z,99188.20
2022-11-07T23:37:09.837Z,99178.75
2022-11-07T23:39:44.060Z,99175.99
2022-11-07T23:42:17.552Z,99182.83
2022-11-07T23:45:08.594Z,99180.29
2022-11-07T23:48:00.013Z,99182.23
2022-11-07T23:50:50.756Z,99174.40
2022-11-07T23:53:41.162Z,99175.17
2022-11-07T23:56:14.626Z,99168.25
2022-11-07T23:59:06.221Z,99160.41
